createdAt,value
2022-08-18T00:01:55.029Z,5.07
2022-08-18T00:04:36.293Z,4.70
2022-08-18T00:07:11.277Z,5.30
2022-08-18T00:09:40.084Z,4.78
2022-08-18T00:12:14.378Z,4.90
2022-08-18T00:14:41.282Z,4.68
2022-08-18T00:17:08.466Z,4.50
2022-08-18T00:19:47.484Z,4.93
2022-08-18T00:22:18.135Z,4.68
2022-08-18T00:24:48.085Z,4.85
2022-08-18T00:27:22.952Z,5.05
2022-08-18T00:29:51.915Z,4.40
2022-08-18T00:32:22.558Z,4.45
2022-08-18T00:34:50.004Z,4.43
2022-08-18T00:37:17.222Z,5.18
2022-08-18T00:39:47.620Z,4.55
2022-08-18T00:42:27.553Z,4.45
2022-08-18T00:45:02.102Z,4.65
2022-08-18T00:47:41.069Z,4.85
2022-08-18T00:50:26.122Z,4.70
2022-08-18T00:53:03.520Z,4.30
2022-08-18T00:55:32.445Z,4.78
2022-08-18T00:58:15.903Z,4.47
2022-08-18T01:00:44.823Z,5.00
2022-08-18T01:03:16.141Z,5.28
2022-08-18T01:06:02.254Z,4.65
2022-08-18T01:08:29.858Z,4.68
2022-08-18T01:11:01.728Z,4.60
2022-08-18T01:13:33.768Z,4.60
2022-08-18T01:16:21.329Z,3.92
2022-08-18T01:19:06.787Z,3.88
2022-08-18T01:21:51.283Z,3.95
2022-08-18T01:24:49.802Z,4.15
2022-08-18T01:27:18.941Z,4.25
2022-08-18T01:29:48.576Z,4.28
2022-08-18T01:32:22.442Z,4.25
2022-08-18T01:34:51.507Z,4.22
2022-08-18T01:37:20.756Z,4.13
2022-08-18T01:41:22.455Z,4.25
2022-08-18T01:42:39.818Z,4.05
2022-08-18T01:45:08.478Z,4.05
2022-08-18T01:47:47.190Z,4.15
2022-08-18T01:50:23.385Z,4.30
2022-08-18T01:52:53.525Z,4.05
2022-08-18T01:55:21.142Z,4.13
2022-08-18T01:57:48.093Z,4.05
2022-08-18T02:00:18.034Z,4.20
2022-08-18T02:02:47.102Z,3.97
2022-08-18T02:05:33.748Z,4.65
2022-08-18T02:08:00.704Z,4.65
2022-08-18T02:10:28.053Z,4.70
2022-08-18T02:12:54.913Z,4.30
2022-08-18T02:15:21.785Z,4.20
2022-08-18T02:17:48.778Z,4.38
2022-08-18T02:20:18.078Z,4.30
2022-08-18T02:22:45.866Z,4.03
2022-08-18T02:25:14.549Z,4.18
2022-08-18T02:27:41.691Z,3.90
2022-08-18T02:30:13.879Z,4.40
2022-08-18T02:32:41.567Z,4.20
2022-08-18T02:35:11.755Z,4.18
2022-08-18T02:37:42.213Z,4.28
2022-08-18T02:40:15.086Z,4.90
2022-08-18T02:42:43.445Z,4.90
2022-08-18T02:45:10.893Z,4.55
2022-08-18T02:47:37.798Z,4.45
2022-08-18T02:50:05.090Z,5.00
2022-08-18T02:52:32.755Z,5.00
2022-08-18T02:55:03.568Z,4.93
2022-08-18T02:57:31.614Z,5.13
2022-08-18T03:00:00.276Z,4.90
2022-08-18T03:02:28.044Z,4.90
2022-08-18T03:04:54.865Z,5.30
2022-08-18T03:07:21.834Z,4.90
2022-08-18T03:09:48.735Z,5.38
2022-08-18T03:12:15.662Z,5.07
2022-08-18T03:14:44.980Z,5.68
2022-08-18T03:17:16.081Z,5.38
2022-08-18T03:19:45.210Z,5.38
2022-08-18T03:22:27.441Z,5.70
2022-08-18T03:24:56.960Z,5.60
2022-08-18T03:27:24.178Z,5.25
2022-08-18T03:29:51.362Z,5.75
2022-08-18T03:32:18.882Z,5.50
2022-08-18T03:34:45.920Z,5.60
2022-08-18T03:37:12.913Z,5.47
2022-08-18T03:39:40.750Z,6.30
2022-08-18T03:42:07.834Z,5.80
2022-08-18T03:44:38.810Z,5.88
2022-08-18T03:47:10.585Z,5.82
2022-08-18T03:49:37.741Z,5.85
2022-08-18T03:52:09.223Z,5.97
2022-08-18T03:54:38.983Z,5.90
2022-08-18T03:57:09.377Z,6.15
2022-08-18T03:59:36.331Z,5.18
2022-08-18T04:02:04.961Z,5.82
2022-08-18T04:04:32.418Z,6.05
2022-08-18T04:07:05.983Z,5.93
2022-08-18T04:09:34.604Z,5.70
2022-08-18T04:12:15.420Z,6.80
2022-08-18T04:14:48.222Z,6.28
2022-08-18T04:17:16.881Z,6.10
2022-08-18T04:19:43.773Z,7.47
2022-08-18T04:22:11.317Z,5.90
2022-08-18T04:24:45.647Z,6.00
2022-08-18T04:27:12.761Z,6.28
2022-08-18T04:29:39.614Z,6.00
2022-08-18T04:32:06.887Z,6.43
2022-08-18T04:34:34.865Z,7.72
2022-08-18T04:37:02.535Z,7.53
2022-08-18T04:39:30.218Z,7.38
2022-08-18T04:41:57.993Z,7.50
2022-08-18T04:44:24.840Z,7.85
2022-08-18T04:46:54.263Z,7.75
2022-08-18T04:49:26.102Z,7.88
2022-08-18T04:52:38.363Z,8.32
2022-08-18T04:55:01.800Z,7.65
2022-08-18T04:57:32.949Z,7.63
2022-08-18T05:00:01.162Z,6.75
2022-08-18T05:02:28.176Z,7.20
2022-08-18T05:04:55.100Z,7.38
2022-08-18T05:07:25.651Z,8.90
2022-08-18T05:09:55.137Z,7.97
2022-08-18T05:12:22.793Z,8.45
2022-08-18T05:14:53.891Z,8.15
2022-08-18T05:17:20.723Z,7.78
2022-08-18T05:19:47.636Z,8.63
2022-08-18T05:22:24.243Z,8.60
2022-08-18T05:24:58.266Z,9.43
2022-08-18T05:27:25.138Z,8.77
2022-08-18T05:29:52.037Z,9.32
2022-08-18T05:32:41.137Z,9.27
2022-08-18T05:35:15.072Z,8.52
2022-08-18T05:38:02.944Z,8.35
2022-08-18T05:40:34.714Z,10.23
2022-08-18T05:43:03.540Z,9.40
2022-08-18T05:45:30.885Z,9.82
2022-08-18T05:48:02.389Z,9.98
2022-08-18T05:50:33.558Z,10.60
2022-08-18T05:53:13.456Z,10.20
2022-08-18T05:56:05.459Z,10.68
2022-08-18T05:58:40.278Z,10.02
2022-08-18T06:01:23.701Z,10.00
2022-08-18T06:03:59.720Z,9.85
2022-08-18T06:06:30.507Z,9.48
2022-08-18T06:09:22.404Z,10.70
2022-08-18T06:11:50.424Z,10.10
2022-08-18T06:14:17.908Z,10.35
2022-08-18T06:17:11.041Z,10.85
2022-08-18T06:19:49.578Z,8.45
2022-08-18T06:22:30.512Z,10.52
2022-08-18T06:25:13.565Z,10.75
2022-08-18T06:28:05.763Z,10.32
2022-08-18T06:30:41.725Z,9.45
2022-08-18T06:33:42.411Z,8.40
2022-08-18T06:36:27.769Z,9.15
2022-08-18T06:39:04.537Z,8.70
2022-08-18T06:41:49.770Z,8.95
2022-08-18T06:44:19.585Z,8.73
2022-08-18T06:46:58.424Z,9.05
2022-08-18T06:50:17.424Z,9.70
2022-08-18T06:52:56.691Z,9.48
2022-08-18T06:55:38.072Z,9.40
2022-08-18T06:58:12.287Z,9.63
2022-08-18T07:00:43.674Z,8.13
2022-08-18T07:03:39.755Z,8.82
2022-08-18T07:06:12.018Z,8.27
2022-08-18T07:08:41.442Z,9.50
2022-08-18T07:11:26.653Z,9.23
2022-08-18T07:14:25.529Z,9.38
2022-08-18T07:17:18.772Z,7.45
2022-08-18T07:19:56.308Z,9.32
2022-08-18T07:22:23.148Z,9.57
2022-08-18T07:25:06.908Z,8.68
2022-08-18T07:27:51.573Z,8.48
2022-08-18T07:30:21.138Z,8.77
2022-08-18T07:33:04.726Z,7.45
2022-08-18T07:35:44.742Z,7.00
2022-08-18T07:38:42.971Z,6.85
2022-08-18T07:41:39.545Z,6.93
2022-08-18T07:44:23.567Z,7.72
2022-08-18T07:47:04.891Z,6.88
2022-08-18T07:49:36.559Z,6.60
2022-08-18T07:52:36.277Z,5.15
2022-08-18T07:55:29.016Z,6.15
2022-08-18T07:58:23.055Z,6.72
2022-08-18T08:01:13.007Z,6.03
2022-08-18T08:04:04.535Z,6.10
2022-08-18T08:07:12.798Z,6.68
2022-08-18T08:09:51.267Z,5.90
2022-08-18T08:12:21.619Z,5.90
2022-08-18T08:14:52.469Z,5.60
2022-08-18T08:17:26.642Z,5.63
2022-08-18T08:20:10.710Z,5.90
2022-08-18T08:22:51.283Z,6.18
2022-08-18T08:25:45.767Z,5.40
2022-08-18T08:28:41.424Z,5.65
2022-08-18T08:34:26.777Z,5.40
2022-08-18T08:37:04.154Z,5.75
2022-08-18T08:39:46.682Z,5.90
2022-08-18T08:42:33.127Z,5.70
2022-08-18T08:45:27.115Z,5.40
2022-08-18T08:48:14.939Z,5.72
2022-08-18T08:50:49.283Z,5.22
2022-08-18T08:53:36.969Z,5.25
2022-08-18T08:56:09.736Z,4.70
2022-08-18T08:59:00.460Z,4.72
2022-08-18T09:01:46.434Z,5.10
2022-08-18T09:04:32.805Z,5.13
2022-08-18T09:07:16.405Z,4.22
2022-08-18T09:10:11.248Z,4.00
2022-08-18T09:13:09.895Z,4.18
2022-08-18T09:15:45.720Z,4.72
2022-08-18T09:18:40.184Z,4.95
2022-08-18T09:21:35.282Z,4.88
2022-08-18T09:24:23.286Z,4.78
2022-08-18T09:26:54.878Z,5.07
2022-08-18T09:29:46.937Z,4.82
2022-08-18T09:32:22.869Z,5.30
2022-08-18T09:35:03.114Z,5.28
2022-08-18T09:37:46.228Z,4.80
2022-08-18T09:43:39.486Z,5.82
2022-08-18T09:46:08.757Z,5.32
2022-08-18T09:51:40.100Z,4.90
2022-08-18T09:54:21.438Z,4.82
2022-08-18T09:56:54.449Z,4.38
2022-08-18T09:59:35.218Z,4.50
2022-08-18T10:02:32.036Z,4.55
2022-08-18T10:05:17.328Z,4.80
2022-08-18T10:07:45.520Z,4.68
2022-08-18T10:11:02.211Z,3.70
2022-08-18T10:13:48.357Z,4.53
2022-08-18T10:19:54.686Z,4.15
2022-08-18T10:22:38.518Z,4.10
2022-08-18T10:27:56.983Z,4.22
2022-08-18T10:30:56.997Z,3.92
2022-08-18T10:34:12.088Z,3.83
2022-08-18T10:36:46.201Z,3.70
2022-08-18T10:39:17.283Z,3.95
2022-08-18T10:41:58.019Z,3.92
2022-08-18T10:47:33.557Z,4.05
2022-08-18T10:50:06.864Z,3.78
2022-08-18T10:52:40.270Z,3.60
2022-08-18T10:55:48.067Z,4.03
2022-08-18T10:58:54.720Z,4.18
2022-08-18T11:01:47.509Z,3.80
2022-08-18T11:04:38.770Z,4.47
2022-08-18T11:07:18.366Z,4.07
2022-08-18T11:09:57.185Z,4.50
2022-08-18T11:13:07.501Z,4.45
2022-08-18T11:15:56.939Z,4.10
2022-08-18T11:18:42.929Z,3.83
2022-08-18T11:21:34.508Z,4.32
2022-08-18T11:24:24.278Z,4.45
2022-08-18T11:27:09.843Z,3.95
2022-08-18T11:29:43.882Z,4.35
2022-08-18T11:32:22.667Z,4.18
2022-08-18T11:34:59.581Z,4.75
2022-08-18T11:37:53.512Z,4.25
2022-08-18T11:41:09.680Z,4.18
2022-08-18T11:46:30.676Z,4.40
2022-08-18T11:49:01.342Z,5.00
2022-08-18T11:51:32.272Z,4.40
2022-08-18T11:54:00.125Z,4.38
2022-08-18T11:56:38.441Z,5.10
2022-08-18T11:59:07.160Z,4.88
2022-08-18T12:01:43.607Z,4.82
2022-08-18T12:04:13.509Z,4.97
2022-08-18T12:06:53.373Z,5.28
2022-08-18T12:10:15.979Z,4.78
2022-08-18T12:12:33.428Z,5.05
2022-08-18T12:15:24.001Z,5.03
2022-08-18T12:17:53.657Z,5.22
2022-08-18T12:20:21.597Z,5.50
2022-08-18T12:22:49.913Z,4.97
2022-08-18T12:25:25.134Z,5.68
2022-08-18T12:27:53.385Z,5.00
2022-08-18T12:30:20.390Z,5.45
2022-08-18T12:38:23.473Z,5.65
2022-08-18T12:40:51.036Z,5.75
2022-08-18T12:43:18.670Z,5.75
2022-08-18T12:45:47.114Z,5.53
2022-08-18T12:48:14.026Z,5.93
2022-08-18T12:50:54.075Z,5.85
2022-08-18T12:53:30.835Z,5.47
2022-08-18T12:56:08.765Z,5.85
2022-08-18T12:58:38.800Z,5.60
2022-08-18T13:01:07.646Z,5.45
2022-08-18T13:03:35.212Z,6.30
2022-08-18T13:06:03.954Z,5.68
2022-08-18T13:08:38.042Z,5.97
2022-08-18T13:11:19.878Z,5.78
2022-08-18T13:13:53.086Z,6.65
2022-08-18T13:16:38.860Z,5.97
2022-08-18T13:19:12.914Z,6.30
2022-08-18T13:21:42.868Z,6.35
2022-08-18T13:24:10.314Z,6.22
2022-08-18T13:26:43.074Z,6.72
2022-08-18T13:29:14.306Z,6.05
2022-08-18T13:31:41.403Z,6.10
2022-08-18T13:34:22.187Z,5.80
2022-08-18T13:36:51.298Z,6.30
2022-08-18T13:39:20.954Z,6.10
2022-08-18T13:41:49.582Z,5.80
2022-08-18T13:44:19.726Z,5.88
2022-08-18T13:46:48.251Z,6.10
2022-08-18T13:49:23.655Z,5.88
2022-08-18T13:51:58.138Z,6.20
2022-08-18T13:54:35.379Z,5.97
2022-08-18T13:57:03.192Z,6.53
2022-08-18T13:59:33.101Z,6.10
2022-08-18T14:02:05.960Z,6.35
2022-08-18T14:04:36.269Z,6.07
2022-08-18T14:07:09.186Z,6.70
2022-08-18T14:09:38.288Z,6.00
2022-08-18T14:12:28.224Z,6.93
2022-08-18T14:14:58.108Z,6.10
2022-08-18T14:17:26.301Z,6.68
2022-08-18T14:20:15.475Z,6.03
2022-08-18T14:23:10.932Z,6.57
2022-08-18T14:25:56.483Z,6.13
2022-08-18T14:28:26.918Z,6.75
2022-08-18T14:30:55.058Z,6.95
2022-08-18T14:33:34.252Z,6.88
2022-08-18T14:36:10.885Z,6.40
2022-08-18T14:38:38.310Z,6.60
2022-08-18T14:41:08.392Z,6.38
2022-08-18T14:43:51.768Z,6.20
2022-08-18T14:46:23.805Z,6.38
2022-08-18T14:48:56.801Z,6.57
2022-08-18T14:51:27.159Z,6.32
2022-08-18T14:53:55.330Z,6.28
2022-08-18T14:56:24.452Z,5.93
2022-08-18T14:58:56.150Z,5.97
2022-08-18T15:01:24.709Z,6.00
2022-08-18T15:03:54.505Z,6.80
2022-08-18T15:06:22.742Z,6.32
2022-08-18T15:08:57.053Z,6.57
2022-08-18T15:11:25.754Z,6.95
2022-08-18T15:13:55.076Z,6.57
2022-08-18T15:16:31.614Z,6.38
2022-08-18T15:18:59.228Z,6.63
2022-08-18T15:21:46.736Z,6.32
2022-08-18T15:24:33.779Z,5.95
2022-08-18T15:27:06.176Z,5.78
2022-08-18T15:29:37.162Z,6.18
2022-08-18T15:32:10.226Z,5.85
2022-08-18T15:34:46.863Z,6.05
2022-08-18T15:37:16.096Z,5.95
2022-08-18T15:39:51.982Z,5.68
2022-08-18T15:42:23.595Z,5.85
2022-08-18T15:44:52.703Z,5.90
2022-08-18T15:47:21.341Z,5.57
2022-08-18T15:49:48.642Z,5.93
2022-08-18T15:52:19.856Z,5.53
2022-08-18T15:54:50.315Z,6.43
2022-08-18T15:57:40.051Z,5.72
2022-08-18T16:00:06.954Z,5.75
2022-08-18T16:02:40.751Z,5.78
2022-08-18T16:05:14.229Z,6.07
2022-08-18T16:07:45.071Z,5.90
2022-08-18T16:10:14.030Z,5.30
2022-08-18T16:12:45.588Z,6.03
2022-08-18T16:15:19.820Z,6.72
2022-08-18T16:17:50.550Z,5.75
2022-08-18T16:20:18.878Z,5.53
2022-08-18T16:22:47.435Z,5.80
2022-08-18T16:25:16.434Z,5.85
2022-08-18T16:27:44.340Z,5.60
2022-08-18T16:30:14.501Z,5.72
2022-08-18T16:32:41.402Z,5.70
2022-08-18T16:35:09.109Z,6.32
2022-08-18T16:37:35.921Z,5.90
2022-08-18T16:40:03.567Z,6.07
2022-08-18T16:42:33.049Z,5.65
2022-08-18T16:45:01.063Z,5.50
2022-08-18T16:47:28.568Z,5.90
2022-08-18T16:49:58.563Z,6.07
2022-08-18T16:52:27.297Z,6.07
2022-08-18T16:54:57.968Z,5.55
2022-08-18T16:57:53.455Z,7.07
2022-08-18T17:00:43.339Z,8.38
2022-08-18T17:03:29.600Z,8.18
2022-08-18T17:06:07.556Z,8.85
2022-08-18T17:08:35.624Z,9.13
2022-08-18T17:11:07.017Z,8.90
2022-08-18T17:13:34.448Z,9.30
2022-08-18T17:16:01.446Z,9.15
2022-08-18T17:18:29.597Z,9.20
2022-08-18T17:20:57.564Z,9.35
2022-08-18T17:23:26.572Z,9.70
2022-08-18T17:25:55.089Z,9.35
2022-08-18T17:28:26.399Z,9.48
2022-08-18T17:30:53.568Z,9.18
2022-08-18T17:33:26.426Z,9.52
2022-08-18T17:35:57.036Z,9.32
2022-08-18T17:38:36.493Z,9.02
2022-08-18T17:41:04.414Z,9.90
2022-08-18T17:43:34.022Z,9.38
2022-08-18T17:46:08.769Z,8.82
2022-08-18T17:48:42.495Z,9.32
2022-08-18T17:51:34.218Z,8.95
2022-08-18T17:54:27.670Z,8.77
2022-08-18T17:57:23.607Z,9.75
2022-08-18T18:00:09.715Z,9.43
2022-08-18T18:02:36.738Z,9.30
2022-08-18T18:05:11.379Z,9.68
2022-08-18T18:07:50.588Z,9.32
2022-08-18T18:10:26.170Z,9.10
2022-08-18T18:13:19.604Z,8.60
2022-08-18T18:15:50.169Z,9.60
2022-08-18T18:18:24.940Z,9.32
2022-08-18T18:21:06.095Z,9.63
2022-08-18T18:23:41.476Z,8.95
2022-08-18T18:26:39.159Z,9.07
2022-08-18T18:29:12.639Z,9.25
2022-08-18T18:31:41.722Z,9.50
2022-08-18T18:34:39.482Z,9.15
2022-08-18T18:37:27.305Z,9.63
2022-08-18T18:39:57.733Z,10.52
2022-08-18T18:42:31.075Z,10.30
2022-08-18T18:45:00.791Z,10.20
2022-08-18T18:47:33.763Z,9.88
2022-08-18T18:50:09.697Z,9.80
2022-08-18T18:52:58.481Z,9.77
2022-08-18T18:55:28.068Z,10.32
2022-08-18T18:58:16.155Z,10.35
2022-08-18T19:00:53.833Z,9.57
2022-08-18T19:03:49.761Z,10.48
2022-08-18T19:06:54.161Z,9.82
2022-08-18T19:09:38.021Z,9.77
2022-08-18T19:12:20.662Z,10.07
2022-08-18T19:15:14.728Z,10.15
2022-08-18T19:17:49.886Z,10.82
2022-08-18T19:20:28.330Z,9.77
2022-08-18T19:22:59.594Z,10.07
2022-08-18T19:25:33.958Z,10.55
2022-08-18T19:28:08.188Z,9.27
2022-08-18T19:30:39.861Z,9.80
2022-08-18T19:33:10.089Z,9.40
2022-08-18T19:35:57.356Z,10.05
2022-08-18T19:38:33.750Z,10.60
2022-08-18T19:41:39.107Z,10.10
2022-08-18T19:44:19.638Z,9.68
2022-08-18T19:46:58.222Z,10.25
2022-08-18T19:49:31.477Z,10.90
2022-08-18T19:52:07.891Z,10.13
2022-08-18T19:55:47.591Z,10.10
2022-08-18T19:58:32.044Z,10.07
2022-08-18T20:01:10.866Z,10.50
2022-08-18T20:03:53.798Z,9.70
2022-08-18T20:06:59.305Z,9.88
2022-08-18T20:09:44.954Z,9.65
2022-08-18T20:12:35.719Z,10.70
2022-08-18T20:15:07.759Z,10.25
2022-08-18T20:17:57.535Z,11.15
2022-08-18T20:20:30.380Z,11.07
2022-08-18T20:22:59.036Z,9.90
2022-08-18T20:25:44.701Z,10.60
2022-08-18T20:28:11.711Z,11.68
2022-08-18T20:30:58.535Z,11.05
2022-08-18T20:33:26.078Z,11.13
2022-08-18T20:36:03.454Z,12.30
2022-08-18T20:38:45.651Z,12.27
2022-08-18T20:41:38.112Z,12.68
2022-08-18T20:44:29.462Z,12.40
2022-08-18T20:47:28.335Z,13.93
2022-08-18T20:50:34.050Z,14.05
2022-08-18T20:53:03.925Z,14.25
2022-08-18T20:55:45.780Z,15.40
2022-08-18T20:58:17.417Z,14.82
2022-08-18T21:00:51.243Z,15.93
2022-08-18T21:03:22.661Z,16.58
2022-08-18T21:05:57.765Z,17.65
2022-08-18T21:08:31.696Z,18.60
2022-08-18T21:11:07.320Z,18.27
2022-08-18T21:13:40.702Z,18.05
2022-08-18T21:16:38.730Z,17.88
2022-08-18T21:19:27.937Z,17.40
2022-08-18T21:22:01.141Z,18.35
2022-08-18T21:24:38.985Z,18.20
2022-08-18T21:27:07.953Z,18.90
2022-08-18T21:29:46.238Z,18.67
2022-08-18T21:32:24.358Z,18.85
2022-08-18T21:34:51.255Z,19.25
2022-08-18T21:37:19.610Z,18.90
2022-08-18T21:39:47.917Z,19.27
2022-08-18T21:42:26.032Z,17.80
2022-08-18T21:44:55.201Z,20.20
2022-08-18T21:47:34.105Z,19.05
2022-08-18T21:50:11.860Z,19.13
2022-08-18T21:52:51.055Z,20.52
2022-08-18T21:55:40.240Z,19.15
2022-08-18T21:58:38.864Z,19.92
2022-08-18T22:01:17.943Z,18.65
2022-08-18T22:04:02.970Z,19.48
2022-08-18T22:06:35.621Z,20.77
2022-08-18T22:09:30.303Z,19.85
2022-08-18T22:12:50.817Z,23.20
2022-08-18T22:15:21.027Z,23.27
2022-08-18T22:17:58.498Z,23.58
2022-08-18T22:20:52.641Z,24.60
2022-08-18T22:24:02.647Z,26.38
2022-08-18T22:26:37.837Z,27.23
2022-08-18T22:29:14.734Z,28.63
2022-08-18T22:31:43.380Z,27.73
2022-08-18T22:34:28.198Z,28.60
2022-08-18T22:36:59.425Z,27.67
2022-08-18T22:39:56.985Z,28.33
2022-08-18T22:42:33.158Z,26.35
2022-08-18T22:45:04.980Z,27.35
2022-08-18T22:47:34.120Z,27.38
2022-08-18T22:50:10.886Z,27.77
2022-08-18T22:52:46.683Z,27.30
2022-08-18T22:55:22.104Z,28.83
2022-08-18T22:57:51.874Z,29.88
2022-08-18T23:00:23.418Z,31.60
2022-08-18T23:02:52.399Z,30.58
2022-08-18T23:05:19.523Z,32.50
2022-08-18T23:07:46.655Z,32.55
2022-08-18T23:10:16.515Z,33.67
2022-08-18T23:12:44.778Z,29.85
2022-08-18T23:15:11.832Z,30.95
2022-08-18T23:17:40.636Z,29.95
2022-08-18T23:20:11.470Z,31.50
2022-08-18T23:22:39.781Z,30.85
2022-08-18T23:25:09.168Z,31.45
2022-08-18T23:27:36.591Z,30.15
2022-08-18T23:30:04.910Z,30.40
2022-08-18T23:32:32.322Z,30.77
2022-08-18T23:34:59.336Z,30.95
2022-08-18T23:37:26.595Z,30.67
2022-08-18T23:39:53.456Z,30.10
2022-08-18T23:42:22.965Z,31.48
2022-08-18T23:44:50.401Z,32.58
2022-08-18T23:47:25.739Z,30.33
2022-08-18T23:49:54.386Z,33.33
2022-08-18T23:52:21.610Z,31.55
2022-08-18T23:54:48.418Z,31.45
2022-08-18T23:57:15.335Z,30.67
2022-08-18T23:59:42.385Z,30.90
